createdAt,value
2019-05-09T00:04:33.506Z,2.50
2019-05-09T00:09:53.377Z,2.57
2019-05-09T00:15:13.664Z,2.70
2019-05-09T00:20:34.016Z,3.40
2019-05-09T00:25:53.812Z,3.95
2019-05-09T00:31:14.144Z,3.57
2019-05-09T00:36:33.485Z,3.30
2019-05-09T00:41:53.889Z,2.90
2019-05-09T00:47:20.051Z,3.17
2019-05-09T00:52:38.731Z,3.90
2019-05-09T00:57:57.288Z,3.73
2019-05-09T01:03:15.857Z,3.80
2019-05-09T01:08:34.420Z,3.73
2019-05-09T01:13:54.340Z,4.20
2019-05-09T01:19:14.245Z,3.93
2019-05-09T01:24:33.967Z,4.40
2019-05-09T01:29:53.554Z,3.97
2019-05-09T01:35:13.186Z,3.75
2019-05-09T01:40:33.232Z,3.50
2019-05-09T01:45:53.909Z,3.50
2019-05-09T01:51:13.863Z,3.00
2019-05-09T01:56:33.867Z,3.65
2019-05-09T02:01:54.117Z,3.33
2019-05-09T02:07:13.444Z,3.20
2019-05-09T02:12:33.900Z,2.77
2019-05-09T02:18:01.419Z,2.40
2019-05-09T02:23:14.652Z,3.03
2019-05-09T02:28:34.111Z,2.83
2019-05-09T02:33:54.184Z,2.65
2019-05-09T02:39:13.097Z,2.53
2019-05-09T02:44:31.741Z,2.27
2019-05-09T02:49:50.493Z,3.03
2019-05-09T02:55:10.755Z,2.53
2019-05-09T03:00:39.680Z,2.83
2019-05-09T03:05:59.767Z,2.63
2019-05-09T03:11:18.970Z,2.60
2019-05-09T03:16:39.750Z,2.30
2019-05-09T03:22:02.381Z,2.50
2019-05-09T03:27:28.507Z,2.80
2019-05-09T03:32:48.881Z,2.73
2019-05-09T03:38:08.150Z,2.67
2019-05-09T03:43:27.493Z,3.30
2019-05-09T03:48:47.910Z,3.23
2019-05-09T03:54:08.069Z,3.20
2019-05-09T03:59:27.850Z,3.60
2019-05-09T04:04:47.576Z,4.03
2019-05-09T04:10:07.838Z,3.77
2019-05-09T04:15:27.489Z,3.23
2019-05-09T04:20:48.197Z,4.23
2019-05-09T04:26:08.406Z,4.33
2019-05-09T04:31:28.017Z,3.63
2019-05-09T04:36:48.328Z,3.17
2019-05-09T04:42:08.376Z,2.40
2019-05-09T04:47:27.873Z,2.47
2019-05-09T04:52:47.525Z,2.40
2019-05-09T04:58:06.369Z,3.07
2019-05-09T05:03:25.019Z,1.80
2019-05-09T05:08:43.675Z,2.17
2019-05-09T05:14:02.330Z,2.50
2019-05-09T05:19:21.102Z,2.33
2019-05-09T05:24:41.414Z,2.37
2019-05-09T05:30:00.107Z,1.97
2019-05-09T05:35:37.568Z,2.10
2019-05-09T05:40:57.845Z,1.93
2019-05-09T05:46:30.532Z,1.90
2019-05-09T05:51:49.187Z,2.30
2019-05-09T05:57:08.507Z,1.77
2019-05-09T06:02:28.137Z,1.63
2019-05-09T06:07:48.322Z,1.80
2019-05-09T06:13:07.955Z,1.40
2019-05-09T06:18:27.592Z,1.30
2019-05-09T06:23:48.225Z,2.00
2019-05-09T06:29:08.077Z,1.73
2019-05-09T06:34:27.785Z,2.00
2019-05-09T06:39:48.473Z,2.07
2019-05-09T06:45:14.632Z,1.63
2019-05-09T06:50:33.230Z,1.67
2019-05-09T06:55:51.871Z,1.50
2019-05-09T07:01:12.259Z,1.80
2019-05-09T07:06:41.964Z,1.60
2019-05-09T07:12:01.642Z,1.57
2019-05-09T07:17:20.200Z,1.40
2019-05-09T07:22:43.438Z,1.60
2019-05-09T07:28:02.109Z,1.20
2019-05-09T07:33:23.162Z,1.50
2019-05-09T07:38:41.818Z,1.60
2019-05-09T07:44:00.428Z,1.47
2019-05-09T07:49:19.116Z,1.43
2019-05-09T07:54:37.894Z,1.20
2019-05-09T07:59:58.404Z,1.30
2019-05-09T08:05:21.364Z,1.20
2019-05-09T08:10:39.863Z,1.50
2019-05-09T08:15:58.722Z,1.40
2019-05-09T08:21:18.193Z,1.37
2019-05-09T08:26:39.331Z,1.20
2019-05-09T08:31:58.213Z,1.50
2019-05-09T08:37:18.799Z,1.50
2019-05-09T08:42:37.994Z,1.30
2019-05-09T08:47:57.736Z,1.20
2019-05-09T08:53:18.862Z,1.13
2019-05-09T08:58:38.206Z,1.40
2019-05-09T09:03:57.650Z,1.30
2019-05-09T09:09:18.001Z,0.97
2019-05-09T09:14:38.512Z,1.43
2019-05-09T09:19:58.383Z,1.00
2019-05-09T09:25:18.397Z,1.10
2019-05-09T09:30:38.611Z,1.00
2019-05-09T09:35:58.041Z,1.20
2019-05-09T09:41:18.148Z,0.93
2019-05-09T09:46:37.507Z,1.20
2019-05-09T09:51:58.126Z,1.00
2019-05-09T09:57:19.058Z,1.30
2019-05-09T10:02:38.327Z,1.20
2019-05-09T10:07:58.179Z,1.20
2019-05-09T10:13:18.545Z,1.40
2019-05-09T10:18:41.765Z,1.40
2019-05-09T10:24:00.462Z,1.50
2019-05-09T10:29:19.032Z,1.70
2019-05-09T10:34:37.977Z,1.43
2019-05-09T10:39:58.036Z,1.47
2019-05-09T10:45:30.698Z,1.30
2019-05-09T10:50:53.805Z,1.63
2019-05-09T10:56:09.678Z,1.67
2019-05-09T11:01:29.534Z,1.30
2019-05-09T11:06:48.291Z,1.70
2019-05-09T11:12:07.872Z,1.40
2019-05-09T11:17:28.632Z,1.10
2019-05-09T11:22:47.049Z,2.73
2019-05-09T11:28:12.638Z,1.20
2019-05-09T11:33:27.805Z,1.57
2019-05-09T11:38:49.466Z,1.97
2019-05-09T11:44:08.554Z,1.40
2019-05-09T11:49:29.528Z,1.20
2019-05-09T11:54:48.304Z,1.00
2019-05-09T12:00:08.358Z,1.00
2019-05-09T12:05:28.761Z,1.17
2019-05-09T12:10:47.857Z,1.10
2019-05-09T12:16:06.552Z,1.00
2019-05-09T12:21:25.182Z,0.80
2019-05-09T12:26:43.815Z,0.82
2019-05-09T12:32:02.458Z,0.80
2019-05-09T12:37:21.158Z,0.80
2019-05-09T12:42:39.965Z,0.77
2019-05-09T12:48:11.043Z,0.70
2019-05-09T12:53:19.930Z,0.70
2019-05-09T12:58:39.141Z,0.73
2019-05-09T13:03:58.410Z,0.60
2019-05-09T13:09:17.960Z,0.60
2019-05-09T13:14:38.012Z,0.70
2019-05-09T13:19:58.554Z,0.60
2019-05-09T13:25:18.917Z,0.60
2019-05-09T13:30:38.117Z,0.50
2019-05-09T13:35:58.408Z,0.77
2019-05-09T13:41:17.788Z,0.80
2019-05-09T13:46:38.776Z,0.80
2019-05-09T13:52:03.950Z,0.80
2019-05-09T13:57:18.762Z,0.80
2019-05-09T14:02:38.449Z,0.93
2019-05-09T14:08:12.107Z,0.83
2019-05-09T14:13:30.717Z,0.80
2019-05-09T14:18:49.355Z,0.83
2019-05-09T14:24:14.837Z,0.70
2019-05-09T14:29:31.524Z,1.00
2019-05-09T14:34:50.759Z,1.00
2019-05-09T14:40:10.463Z,1.20
2019-05-09T14:45:29.314Z,1.40
2019-05-09T14:50:51.680Z,1.20
2019-05-09T14:56:10.923Z,1.30
2019-05-09T15:01:45.077Z,1.27
2019-05-09T15:06:59.358Z,1.47
2019-05-09T15:12:21.184Z,1.60
2019-05-09T15:17:40.847Z,2.03
2019-05-09T15:23:00.277Z,1.60
2019-05-09T15:28:19.181Z,1.90
2019-05-09T15:33:37.926Z,1.90
2019-05-09T15:38:59.141Z,1.70
2019-05-09T15:44:18.728Z,1.33
2019-05-09T15:49:38.543Z,1.70
2019-05-09T15:54:58.091Z,1.83
2019-05-09T16:00:20.517Z,2.00
2019-05-09T16:05:41.111Z,2.10
2019-05-09T16:11:02.712Z,2.00
2019-05-09T16:16:22.079Z,2.10
2019-05-09T16:21:41.018Z,2.00
2019-05-09T16:26:59.783Z,2.00
2019-05-09T16:32:18.449Z,2.00
2019-05-09T16:37:57.386Z,1.73
2019-05-09T16:42:58.185Z,1.97
2019-05-09T16:48:18.473Z,1.57
2019-05-09T16:53:37.803Z,1.50
2019-05-09T16:58:57.862Z,1.30
2019-05-09T17:04:19.129Z,1.20
2019-05-09T17:09:40.061Z,1.73
2019-05-09T17:14:59.733Z,1.50
2019-05-09T17:20:32.239Z,1.70
2019-05-09T17:25:51.063Z,1.57
2019-05-09T17:31:09.841Z,1.53
2019-05-09T17:36:28.737Z,1.50
2019-05-09T17:41:47.421Z,1.70
2019-05-09T17:47:08.189Z,1.37
2019-05-09T17:52:26.425Z,1.30
2019-05-09T17:57:45.054Z,1.47
2019-05-09T18:03:03.706Z,1.33
2019-05-09T18:08:22.272Z,1.40
2019-05-09T18:13:40.988Z,1.50
2019-05-09T18:19:01.198Z,1.23
2019-05-09T18:24:19.883Z,1.73
2019-05-09T18:29:38.543Z,1.60
2019-05-09T18:35:13.980Z,2.10
2019-05-09T18:40:32.678Z,2.00
2019-05-09T18:45:51.390Z,2.00
2019-05-09T18:51:10.094Z,2.30
2019-05-09T18:56:28.696Z,2.30
2019-05-09T19:01:47.410Z,1.97
2019-05-09T19:07:21.132Z,2.23
2019-05-09T19:12:26.850Z,2.23
2019-05-09T19:17:47.203Z,1.33
2019-05-09T19:23:05.946Z,1.60
2019-05-09T19:28:24.570Z,1.33
2019-05-09T19:33:43.409Z,1.70
2019-05-09T19:39:02.074Z,1.70
2019-05-09T19:44:20.941Z,1.60
2019-05-09T19:49:39.662Z,1.73
2019-05-09T19:54:58.306Z,2.20
2019-05-09T20:00:17.395Z,2.20
2019-05-09T20:05:36.132Z,2.73
2019-05-09T20:11:05.656Z,3.00
2019-05-09T20:16:24.641Z,2.80
2019-05-09T20:21:43.581Z,2.93
2019-05-09T20:27:02.609Z,3.27
2019-05-09T20:32:21.543Z,3.07
2019-05-09T20:37:40.936Z,2.37
2019-05-09T20:42:59.720Z,2.20
2019-05-09T20:48:18.563Z,2.37
2019-05-09T20:53:37.365Z,2.90
2019-05-09T20:58:56.505Z,3.73
2019-05-09T21:04:15.403Z,5.47
2019-05-09T21:09:34.377Z,6.30
2019-05-09T21:14:53.562Z,7.27
2019-05-09T21:20:12.525Z,7.53
2019-05-09T21:25:33.469Z,8.67
2019-05-09T21:30:51.970Z,9.73
2019-05-09T21:36:10.682Z,8.90
2019-05-09T21:41:29.332Z,8.00
2019-05-09T21:46:47.908Z,9.47
2019-05-09T21:52:06.657Z,10.43
2019-05-09T21:57:25.357Z,12.13
2019-05-09T22:02:44.528Z,11.65
2019-05-09T22:08:03.142Z,11.50
2019-05-09T22:13:21.763Z,11.33
2019-05-09T22:18:40.476Z,10.97
2019-05-09T22:23:59.182Z,11.43
2019-05-09T22:29:17.833Z,11.77
2019-05-09T22:34:36.479Z,12.87
2019-05-09T22:39:55.160Z,13.37
2019-05-09T22:45:14.563Z,13.23
2019-05-09T22:50:33.183Z,13.40
2019-05-09T22:55:51.919Z,13.23
2019-05-09T23:01:10.716Z,11.40
2019-05-09T23:06:29.446Z,13.10
2019-05-09T23:11:48.275Z,13.07
2019-05-09T23:17:07.707Z,10.63
2019-05-09T23:22:28.026Z,10.47
2019-05-09T23:27:46.743Z,12.07
2019-05-09T23:33:05.451Z,9.77
2019-05-09T23:38:24.121Z,10.43
2019-05-09T23:43:42.805Z,10.93
2019-05-09T23:49:01.732Z,9.50
2019-05-09T23:54:48.051Z,10.13
